Terminal Aerodrome Forecast
Issued by NWS

Home | Current Version | Previous Version | Text Only | Print | Product List | Glossary On
Versions: 1 2 3 4 5 6 7 8 9 10 11 12 13 14 15 16 17 18
836
FTAK31 PAJN 252324
TAFAWG
TAF
PAWG 252324Z 2600/2624 VRB05KT P6SM -SHRA SCT009 BKN035 OVC050
      TEMPO 2600/2604 6SM -SHRA BR BKN014 OVC025
     FM260900 28005KT P6SM VCSH FEW025 OVC035
      AMD NOT SKED=

USA.gov is the U.S. government's official web portal to all federal, state and local government web resources and services.